createdAt,value
2023-03-21T00:00:29.435Z,1.63
2023-03-21T00:02:56.260Z,1.33
2023-03-21T00:05:24.223Z,1.42
2023-03-21T00:07:50.925Z,1.40
2023-03-21T00:10:26.810Z,1.20
2023-03-21T00:12:59.718Z,1.23
2023-03-21T00:15:41.153Z,1.60
2023-03-21T00:18:12.659Z,1.35
2023-03-21T00:20:40.511Z,1.40
2023-03-21T00:23:06.971Z,1.45
2023-03-21T00:25:33.462Z,1.42
2023-03-21T00:28:08.006Z,1.23
2023-03-21T00:30:35.259Z,1.40
2023-03-21T00:33:12.085Z,1.67
2023-03-21T00:35:58.728Z,1.30
2023-03-21T00:38:29.202Z,1.35
2023-03-21T00:40:56.887Z,1.55
2023-03-21T00:43:23.517Z,1.50
2023-03-21T00:45:51.264Z,1.38
2023-03-21T00:48:18.662Z,1.30
2023-03-21T00:50:47.433Z,1.35
2023-03-21T00:53:14.992Z,1.50
2023-03-21T00:55:41.782Z,1.30
2023-03-21T00:58:08.285Z,1.08
2023-03-21T01:00:35.694Z,1.40
2023-03-21T01:03:14.133Z,1.40
2023-03-21T01:05:47.831Z,1.30
2023-03-21T01:08:26.513Z,1.27
2023-03-21T01:10:55.364Z,1.30
2023-03-21T01:13:23.690Z,1.42
2023-03-21T01:15:52.481Z,1.25
2023-03-21T01:18:21.364Z,1.35
2023-03-21T01:20:49.277Z,1.33
2023-03-21T01:23:16.296Z,1.35
2023-03-21T01:25:43.171Z,1.27
2023-03-21T01:28:10.405Z,1.23
2023-03-21T01:30:41.982Z,1.40
2023-03-21T01:33:08.700Z,1.10
2023-03-21T01:35:47.864Z,1.20
2023-03-21T01:38:18.181Z,1.30
2023-03-21T01:40:46.081Z,1.00
2023-03-21T01:43:22.460Z,1.20
2023-03-21T01:46:08.779Z,1.20
2023-03-21T01:48:39.304Z,1.27
2023-03-21T01:51:06.810Z,1.10
2023-03-21T01:53:38.286Z,1.10
2023-03-21T01:56:12.065Z,1.27
2023-03-21T01:58:41.190Z,1.33
2023-03-21T02:01:09.071Z,1.25
2023-03-21T02:03:36.561Z,1.10
2023-03-21T02:06:08.292Z,0.95
2023-03-21T02:08:39.524Z,1.27
2023-03-21T02:11:07.566Z,1.73
2023-03-21T02:13:34.139Z,0.82
2023-03-21T02:16:05.534Z,1.02
2023-03-21T02:18:42.668Z,1.02
2023-03-21T02:21:35.125Z,0.90
2023-03-21T02:24:22.210Z,1.00
2023-03-21T02:27:04.119Z,1.15
2023-03-21T02:29:52.636Z,1.08
2023-03-21T02:32:37.444Z,1.30
2023-03-21T02:35:24.569Z,1.10
2023-03-21T02:38:00.500Z,0.98
2023-03-21T02:40:32.877Z,1.00
2023-03-21T02:43:09.127Z,1.00
2023-03-21T02:45:42.820Z,1.20
2023-03-21T02:48:25.525Z,0.75
2023-03-21T02:50:58.925Z,1.15
2023-03-21T02:53:31.806Z,1.02
2023-03-21T02:56:00.212Z,0.98
2023-03-21T02:58:29.182Z,1.10
2023-03-21T03:00:55.893Z,1.10
2023-03-21T03:03:33.641Z,0.98
2023-03-21T03:06:02.395Z,1.08
2023-03-21T03:08:50.132Z,0.98
2023-03-21T03:11:29.538Z,1.05
2023-03-21T03:14:31.468Z,1.00
2023-03-21T03:17:09.676Z,1.30
2023-03-21T03:19:49.957Z,0.93
2023-03-21T03:22:23.518Z,1.13
2023-03-21T03:24:58.564Z,1.00
2023-03-21T03:27:29.435Z,1.10
2023-03-21T03:30:00.547Z,0.70
2023-03-21T03:32:31.568Z,1.02
2023-03-21T03:34:58.902Z,1.00
2023-03-21T03:37:29.432Z,1.00
2023-03-21T03:40:02.890Z,1.15
2023-03-21T03:42:34.664Z,1.10
2023-03-21T03:45:02.621Z,0.95
2023-03-21T03:47:42.071Z,0.70
2023-03-21T03:50:24.217Z,1.23
2023-03-21T03:52:57.757Z,0.95
2023-03-21T03:55:28.340Z,1.00
2023-03-21T03:57:55.142Z,0.90
2023-03-21T04:00:21.587Z,0.80
2023-03-21T04:02:48.225Z,1.00
2023-03-21T04:05:15.042Z,0.98
2023-03-21T04:07:41.597Z,1.00
2023-03-21T04:10:08.729Z,1.10
2023-03-21T04:12:36.549Z,0.70
2023-03-21T04:15:10.803Z,0.90
2023-03-21T04:17:38.569Z,1.10
2023-03-21T04:20:12.916Z,0.90
2023-03-21T04:22:45.193Z,1.10
2023-03-21T04:25:12.281Z,0.85
2023-03-21T04:27:41.006Z,0.98
2023-03-21T04:30:08.576Z,1.10
2023-03-21T04:32:35.038Z,1.05
2023-03-21T04:35:01.560Z,0.90
2023-03-21T04:37:28.041Z,0.93
2023-03-21T04:39:54.692Z,0.88
2023-03-21T04:42:21.216Z,0.90
2023-03-21T04:44:49.008Z,0.70
2023-03-21T04:47:16.587Z,0.90
2023-03-21T04:49:43.728Z,0.90
2023-03-21T04:52:10.169Z,1.05
2023-03-21T04:54:36.642Z,0.80
2023-03-21T04:57:03.350Z,0.70
2023-03-21T04:59:30.043Z,0.80
2023-03-21T05:01:58.152Z,0.75
2023-03-21T05:04:26.157Z,1.08
2023-03-21T05:06:53.640Z,0.98
2023-03-21T05:09:20.481Z,0.70
2023-03-21T05:11:47.075Z,0.77
2023-03-21T05:14:16.735Z,0.88
2023-03-21T05:16:44.726Z,0.90
2023-03-21T05:19:12.541Z,1.00
2023-03-21T05:21:39.116Z,0.85
2023-03-21T05:24:05.970Z,0.80
2023-03-21T05:26:32.392Z,0.77
2023-03-21T05:28:58.822Z,0.85
2023-03-21T05:31:25.520Z,0.90
2023-03-21T05:33:51.986Z,0.77
2023-03-21T05:36:19.870Z,0.77
2023-03-21T05:38:46.359Z,0.70
2023-03-21T05:41:13.017Z,0.90
2023-03-21T05:43:39.860Z,0.80
2023-03-21T05:46:07.109Z,1.00
2023-03-21T05:48:33.640Z,0.75
2023-03-21T05:51:00.120Z,0.80
2023-03-21T05:53:27.888Z,0.80
2023-03-21T05:55:54.349Z,0.95
2023-03-21T05:58:20.880Z,0.90
2023-03-21T06:00:47.346Z,0.90
2023-03-21T06:03:13.907Z,0.70
2023-03-21T06:05:40.544Z,1.20
2023-03-21T06:08:07.020Z,0.60
2023-03-21T06:10:34.798Z,1.10
2023-03-21T06:13:01.538Z,0.85
2023-03-21T06:15:28.134Z,0.77
2023-03-21T06:17:54.617Z,0.75
2023-03-21T06:20:21.238Z,0.50
2023-03-21T06:22:47.781Z,0.90
2023-03-21T06:25:14.342Z,0.93
2023-03-21T06:27:42.091Z,1.00
2023-03-21T06:30:09.980Z,0.77
2023-03-21T06:32:36.466Z,1.00
2023-03-21T06:35:03.121Z,1.05
2023-03-21T06:37:29.550Z,1.10
2023-03-21T06:39:55.987Z,1.20
2023-03-21T06:42:22.490Z,0.98
2023-03-21T06:44:50.312Z,0.90
2023-03-21T06:47:16.881Z,0.82
2023-03-21T06:49:43.412Z,0.77
2023-03-21T06:52:10.037Z,1.00
2023-03-21T06:54:36.568Z,0.85
2023-03-21T06:57:03.227Z,0.88
2023-03-21T06:59:29.769Z,1.25
2023-03-21T07:01:57.613Z,1.00
2023-03-21T07:04:24.158Z,1.48
2023-03-21T10:11:14.231Z,2.60
2023-03-21T10:13:44.290Z,2.20
2023-03-21T10:16:14.834Z,2.35
2023-03-21T10:18:43.869Z,1.90
2023-03-21T10:21:43.092Z,2.22
2023-03-21T10:24:06.901Z,1.80
2023-03-21T10:26:33.713Z,2.13
2023-03-21T10:29:02.367Z,1.90
2023-03-21T10:31:30.393Z,2.38
2023-03-21T10:34:02.337Z,2.00
2023-03-21T10:36:31.198Z,1.75
2023-03-21T10:39:01.527Z,1.88
2023-03-21T10:41:29.355Z,1.77
2023-03-21T10:44:07.480Z,1.48
2023-03-21T10:46:36.165Z,1.50
2023-03-21T10:49:03.646Z,1.83
2023-03-21T10:51:35.644Z,2.08
2023-03-21T10:54:07.715Z,2.78
2023-03-21T10:56:39.302Z,2.45
2023-03-21T10:59:08.772Z,3.42
2023-03-21T11:01:38.888Z,3.03
2023-03-21T11:04:09.708Z,2.45
2023-03-21T11:06:39.286Z,2.35
2023-03-21T11:09:08.822Z,2.63
2023-03-21T11:11:38.665Z,2.08
2023-03-21T11:14:07.638Z,2.33
2023-03-21T11:16:39.807Z,1.95
2023-03-21T11:19:18.091Z,2.05
2023-03-21T11:21:45.195Z,2.33
2023-03-21T11:24:14.852Z,1.88
2023-03-21T11:26:44.320Z,2.05
2023-03-21T11:29:23.227Z,2.33
2023-03-21T11:31:49.857Z,2.05
2023-03-21T11:34:26.785Z,2.40
2023-03-21T11:36:59.565Z,2.00
2023-03-21T11:39:36.523Z,2.22
2023-03-21T11:42:04.480Z,2.08
2023-03-21T11:44:34.291Z,3.20
2023-03-21T11:47:02.057Z,2.75
2023-03-21T11:49:28.829Z,2.53
2023-03-21T11:52:04.441Z,2.20
2023-03-21T11:54:41.024Z,2.35
2023-03-21T11:57:19.997Z,2.03
2023-03-21T11:59:53.825Z,1.90
2023-03-21T12:05:04.698Z,2.10
2023-03-21T12:07:46.634Z,2.22
2023-03-21T12:10:30.219Z,2.08
2023-03-21T12:13:07.936Z,2.08
2023-03-21T12:15:40.497Z,2.10
2023-03-21T12:18:20.785Z,2.10
2023-03-21T12:20:53.060Z,2.10
2023-03-21T12:23:32.618Z,2.15
2023-03-21T12:26:10.236Z,2.30
2023-03-21T12:28:47.964Z,2.60
2023-03-21T12:31:24.964Z,2.40
2023-03-21T12:34:05.124Z,3.72
2023-03-21T12:36:42.983Z,3.22
2023-03-21T12:39:24.598Z,3.30
2023-03-21T12:42:03.248Z,4.30
2023-03-21T12:44:35.691Z,3.53
2023-03-21T12:47:06.894Z,3.70
2023-03-21T12:49:38.405Z,3.15
2023-03-21T12:52:10.493Z,3.03
2023-03-21T12:54:41.165Z,2.95
2023-03-21T12:57:12.348Z,2.40
2023-03-21T12:59:48.934Z,2.88
2023-03-21T13:02:20.318Z,2.50
2023-03-21T13:04:56.257Z,2.30
2023-03-21T13:07:23.724Z,2.17
2023-03-21T13:09:50.570Z,2.55
2023-03-21T13:12:26.175Z,2.20
2023-03-21T13:15:10.131Z,2.30
2023-03-21T13:17:45.615Z,2.00
2023-03-21T13:20:19.671Z,2.28
2023-03-21T13:22:46.354Z,2.85
2023-03-21T13:25:18.705Z,3.28
2023-03-21T13:27:51.514Z,2.30
2023-03-21T13:30:21.708Z,2.85
2023-03-21T13:32:50.428Z,3.03
2023-03-21T13:35:20.261Z,3.60
2023-03-21T13:37:52.244Z,3.47
2023-03-21T13:40:23.908Z,3.13
2023-03-21T13:42:53.143Z,2.47
2023-03-21T13:45:30.871Z,2.65
2023-03-21T13:47:59.208Z,2.38
2023-03-21T13:50:29.922Z,2.40
2023-03-21T13:53:10.848Z,2.40
2023-03-21T13:55:42.314Z,2.63
2023-03-21T13:58:33.190Z,2.33
2023-03-21T14:01:13.866Z,2.30
2023-03-21T14:03:41.847Z,2.60
2023-03-21T14:06:10.722Z,2.72
2023-03-21T14:08:40.769Z,3.05
2023-03-21T14:11:11.929Z,2.00
2023-03-21T14:13:50.851Z,2.20
2023-03-21T14:16:20.974Z,2.28
2023-03-21T14:18:54.952Z,1.77
2023-03-21T14:21:24.969Z,2.05
2023-03-21T14:24:00.691Z,2.13
2023-03-21T14:26:30.424Z,2.20
2023-03-21T14:28:57.516Z,2.25
2023-03-21T14:31:26.525Z,2.00
2023-03-21T14:33:56.766Z,1.75
2023-03-21T14:36:25.623Z,1.80
2023-03-21T14:39:03.396Z,1.70
2023-03-21T14:41:32.095Z,1.75
2023-03-21T14:44:11.025Z,1.70
2023-03-21T14:46:40.975Z,1.48
2023-03-21T14:49:13.337Z,2.00
2023-03-21T14:51:40.525Z,1.33
2023-03-21T14:54:09.293Z,1.80
2023-03-21T14:56:38.507Z,1.77
2023-03-21T14:59:05.096Z,1.88
2023-03-21T15:01:33.539Z,1.98
2023-03-21T15:04:05.761Z,1.67
2023-03-21T15:06:32.290Z,1.80
2023-03-21T15:09:01.548Z,1.50
2023-03-21T15:11:30.825Z,1.60
2023-03-21T15:13:59.884Z,1.55
2023-03-21T15:16:26.921Z,1.58
2023-03-21T15:18:53.809Z,2.00
2023-03-21T15:21:24.728Z,1.50
2023-03-21T15:23:55.762Z,1.42
2023-03-21T15:26:25.469Z,1.40
2023-03-21T15:28:57.119Z,1.80
2023-03-21T15:31:28.273Z,1.48
2023-03-21T15:33:55.332Z,1.80
2023-03-21T15:36:26.175Z,1.60
2023-03-21T15:38:53.520Z,1.88
2023-03-21T15:41:29.257Z,1.60
2023-03-21T15:44:05.142Z,1.48
2023-03-21T15:46:34.685Z,1.70
2023-03-21T15:49:10.785Z,1.67
2023-03-21T15:51:40.486Z,1.50
2023-03-21T15:54:13.851Z,1.88
2023-03-21T15:56:42.409Z,2.00
2023-03-21T15:59:14.034Z,2.20
2023-03-21T16:01:40.737Z,2.10
2023-03-21T16:04:09.505Z,1.90
2023-03-21T16:06:38.330Z,1.90
2023-03-21T16:09:11.193Z,1.60
2023-03-21T16:11:39.593Z,1.83
2023-03-21T16:14:06.849Z,1.92
2023-03-21T16:16:33.489Z,1.70
2023-03-21T16:19:01.152Z,1.90
2023-03-21T16:21:29.706Z,1.67
2023-03-21T16:23:58.088Z,1.90
2023-03-21T16:26:28.416Z,1.80
2023-03-21T16:28:55.335Z,1.90
2023-03-21T16:31:24.535Z,1.83
2023-03-21T16:33:52.253Z,1.20
2023-03-21T16:36:21.210Z,1.40
2023-03-21T16:38:48.901Z,1.50
2023-03-21T16:41:16.802Z,1.70
2023-03-21T16:43:43.947Z,1.70
2023-03-21T16:46:13.405Z,1.80
2023-03-21T16:48:39.959Z,1.40
2023-03-21T16:51:06.720Z,1.52
2023-03-21T16:53:33.210Z,1.23
2023-03-21T16:56:00.370Z,1.42
2023-03-21T16:58:29.638Z,1.55
2023-03-21T17:00:56.368Z,1.70
2023-03-21T17:03:23.216Z,1.73
2023-03-21T17:05:49.722Z,1.40
2023-03-21T17:08:18.000Z,1.40
2023-03-21T17:10:45.611Z,1.42
2023-03-21T17:13:12.122Z,1.42
2023-03-21T17:15:39.842Z,1.65
2023-03-21T17:18:06.513Z,1.50
2023-03-21T17:20:34.511Z,1.40
2023-03-21T17:23:01.235Z,1.48
2023-03-21T17:25:27.778Z,1.48
2023-03-21T17:27:54.613Z,1.27
2023-03-21T17:30:24.461Z,1.50
2023-03-21T17:32:53.023Z,1.33
2023-03-21T17:35:20.391Z,1.63
2023-03-21T17:37:47.466Z,1.27
2023-03-21T17:40:14.136Z,1.30
2023-03-21T17:42:40.588Z,1.30
2023-03-21T17:45:07.954Z,1.50
2023-03-21T17:47:34.440Z,1.67
2023-03-21T17:50:02.480Z,1.55
2023-03-21T17:52:28.959Z,1.40
2023-03-21T17:54:55.577Z,1.63
2023-03-21T17:57:22.112Z,1.25
2023-03-21T17:59:48.603Z,1.48
2023-03-21T18:02:15.347Z,1.17
2023-03-21T18:04:41.933Z,1.40
2023-03-21T18:07:16.179Z,1.27
2023-03-21T18:09:47.439Z,1.70
2023-03-21T18:12:14.007Z,1.17
2023-03-21T18:14:40.845Z,1.40
2023-03-21T18:17:07.279Z,1.30
2023-03-21T18:19:33.756Z,1.40
2023-03-21T18:22:00.226Z,1.20
2023-03-21T18:24:27.962Z,1.60
2023-03-21T18:26:54.489Z,1.77
2023-03-21T18:32:08.643Z,1.45
2023-03-21T18:34:37.326Z,1.48
2023-03-21T18:37:04.532Z,1.60
2023-03-21T18:39:32.883Z,1.65
2023-03-21T18:41:59.380Z,1.73
2023-03-21T18:44:26.057Z,1.58
2023-03-21T18:46:52.850Z,1.70
2023-03-21T18:52:06.569Z,1.83
2023-03-21T18:54:34.526Z,1.60
2023-03-21T18:59:47.735Z,1.73
2023-03-21T19:02:15.382Z,1.70
2023-03-21T19:04:42.771Z,1.40
2023-03-21T19:07:09.954Z,1.42
2023-03-21T19:10:13.942Z,1.50
2023-03-21T19:12:24.405Z,1.63
2023-03-21T19:14:51.018Z,1.40
2023-03-21T19:18:15.317Z,1.60
2023-03-21T19:20:05.152Z,1.60
2023-03-21T19:22:31.723Z,1.70
2023-03-21T19:24:59.471Z,1.52
2023-03-21T19:27:26.129Z,1.75
2023-03-21T19:30:06.818Z,1.50
2023-03-21T19:32:39.477Z,1.52
2023-03-21T19:35:06.582Z,1.45
2023-03-21T19:37:35.274Z,1.75
2023-03-21T19:40:03.640Z,1.92
2023-03-21T19:42:30.880Z,1.80
2023-03-21T19:44:57.906Z,1.50
2023-03-21T19:47:24.377Z,1.80
2023-03-21T19:50:37.485Z,1.75
2023-03-21T19:52:37.264Z,1.80
2023-03-21T19:55:05.721Z,1.80
2023-03-21T19:57:32.277Z,1.80
2023-03-21T19:59:58.770Z,1.80
2023-03-21T20:02:35.410Z,1.52
2023-03-21T20:05:02.566Z,1.40
2023-03-21T20:07:29.137Z,1.73
2023-03-21T20:09:57.376Z,1.40
2023-03-21T20:12:25.389Z,1.60
2023-03-21T20:14:58.000Z,1.50
2023-03-21T20:17:31.387Z,1.42
2023-03-21T20:19:57.881Z,1.80
2023-03-21T20:22:35.882Z,1.58
2023-03-21T20:25:11.629Z,1.60
2023-03-21T20:27:41.562Z,1.60
2023-03-21T20:30:10.910Z,1.52
2023-03-21T20:32:37.675Z,1.48
2023-03-21T20:35:16.935Z,1.65
2023-03-21T20:37:46.698Z,1.70
2023-03-21T20:40:15.031Z,1.67
2023-03-21T20:42:43.618Z,1.92
2023-03-21T20:45:12.455Z,1.67
2023-03-21T20:47:39.115Z,1.70
2023-03-21T20:50:06.664Z,1.52
2023-03-21T20:55:20.174Z,1.80
2023-03-21T20:57:48.697Z,1.70
2023-03-21T21:00:16.400Z,1.70
2023-03-21T21:02:44.593Z,1.88
2023-03-21T21:05:25.345Z,1.70
2023-03-21T21:07:52.355Z,1.80
2023-03-21T21:10:19.047Z,1.98
2023-03-21T21:12:45.578Z,1.50
2023-03-21T21:15:14.732Z,1.50
2023-03-21T21:20:27.966Z,1.60
2023-03-21T21:23:00.271Z,1.77
2023-03-21T21:25:27.953Z,1.80
2023-03-21T21:27:54.483Z,1.50
2023-03-21T21:30:22.251Z,1.50
2023-03-21T21:32:48.753Z,1.60
2023-03-21T21:35:15.321Z,2.28
2023-03-21T21:37:41.779Z,1.80
2023-03-21T21:40:09.598Z,1.52
2023-03-21T21:42:36.081Z,1.95
2023-03-21T21:45:02.513Z,1.58
2023-03-21T21:47:30.840Z,1.75
2023-03-21T21:49:57.424Z,1.80
2023-03-21T21:52:23.868Z,1.75
2023-03-21T21:54:50.345Z,1.77
2023-03-21T21:57:16.824Z,1.75
2023-03-21T21:59:43.294Z,1.92
2023-03-21T22:02:12.057Z,1.80
2023-03-21T22:04:39.822Z,1.52
2023-03-21T22:07:06.623Z,1.98
2023-03-21T22:09:33.099Z,1.67
2023-03-21T22:11:59.645Z,1.38
2023-03-21T22:14:26.145Z,1.40
2023-03-21T22:16:52.617Z,1.85
2023-03-21T22:19:19.095Z,1.48
2023-03-21T22:21:46.983Z,1.98
2023-03-21T22:24:13.511Z,1.70
2023-03-21T22:26:40.073Z,1.90
2023-03-21T22:29:06.641Z,1.85
2023-03-21T22:31:33.129Z,1.65
2023-03-21T22:33:59.558Z,1.52
2023-03-21T22:36:26.080Z,1.60
2023-03-21T22:38:53.862Z,1.70
2023-03-21T22:41:20.310Z,1.75
2023-03-21T22:43:46.947Z,1.50
2023-03-21T22:46:13.557Z,1.63
2023-03-21T22:48:40.111Z,1.65
2023-03-21T22:51:07.133Z,1.75
2023-03-21T22:53:34.005Z,1.55
2023-03-21T22:56:01.788Z,1.60
2023-03-21T22:58:28.273Z,1.95
2023-03-21T23:01:00.644Z,1.90
2023-03-21T23:03:27.161Z,1.48
2023-03-21T23:05:56.292Z,1.65
2023-03-21T23:08:23.123Z,1.60
2023-03-21T23:10:49.676Z,1.70
2023-03-21T23:13:17.428Z,1.40
2023-03-21T23:15:44.173Z,1.60
2023-03-21T23:18:10.737Z,1.63
2023-03-21T23:20:37.313Z,1.80
2023-03-21T23:23:04.365Z,1.48
2023-03-21T23:25:30.949Z,1.58
2023-03-21T23:27:57.418Z,2.03
2023-03-21T23:30:25.623Z,1.95
2023-03-21T23:32:52.433Z,1.88
2023-03-21T23:35:19.086Z,1.73
2023-03-21T23:37:45.617Z,1.63
2023-03-21T23:40:12.367Z,1.52
2023-03-21T23:42:38.846Z,1.45
2023-03-21T23:45:06.119Z,1.60
2023-03-21T23:47:33.960Z,1.80
2023-03-21T23:50:00.456Z,1.60
2023-03-21T23:52:26.904Z,1.73
2023-03-21T23:54:53.422Z,1.60
2023-03-21T23:57:20.068Z,1.50
2023-03-21T23:59:46.565Z,1.65
